createdAt,value
2022-10-26T00:00:13.882Z,51.97
2022-10-26T00:00:46.168Z,51.81
2022-10-26T00:01:18.417Z,51.76
2022-10-26T00:01:53.442Z,51.50
2022-10-26T00:02:26.190Z,51.59
2022-10-26T00:02:58.461Z,51.57
2022-10-26T00:03:33.271Z,51.86
2022-10-26T00:04:05.491Z,51.94
2022-10-26T00:04:37.676Z,51.91
2022-10-26T00:05:12.661Z,51.93
2022-10-26T00:05:45.193Z,51.52
2022-10-26T00:06:19.202Z,51.90
2022-10-26T00:06:53.996Z,51.74
2022-10-26T00:07:26.240Z,51.76
2022-10-26T00:07:58.467Z,51.79
2022-10-26T00:08:33.298Z,51.94
2022-10-26T00:09:05.468Z,51.97
2022-10-26T00:09:40.463Z,51.56
2022-10-26T00:10:12.644Z,51.65
2022-10-26T00:10:44.816Z,51.95
2022-10-26T00:11:19.992Z,51.54
2022-10-26T00:11:55.365Z,51.52
2022-10-26T00:12:27.568Z,51.55
2022-10-26T00:13:02.371Z,51.62
2022-10-26T00:13:35.163Z,51.83
2022-10-26T00:14:07.357Z,51.50
2022-10-26T00:14:42.151Z,51.80
2022-10-26T00:15:14.319Z,51.76
2022-10-26T00:15:46.492Z,51.86
2022-10-26T00:16:24.008Z,51.88
2022-10-26T00:16:56.361Z,52.01
2022-10-26T00:17:28.585Z,51.54
2022-10-26T00:18:03.398Z,51.79
2022-10-26T00:18:35.628Z,51.71
2022-10-26T00:19:07.799Z,51.79
2022-10-26T00:19:42.929Z,51.74
2022-10-26T00:20:15.545Z,51.66
2022-10-26T00:20:47.802Z,51.56
2022-10-26T00:21:22.858Z,51.86
2022-10-26T00:21:55.085Z,51.56
2022-10-26T00:22:27.550Z,51.51
2022-10-26T00:22:59.798Z,51.54
2022-10-26T00:23:34.699Z,51.98
2022-10-26T00:24:07.185Z,51.53
2022-10-26T00:24:39.407Z,51.79
2022-10-26T00:25:14.217Z,51.56
2022-10-26T00:25:54.572Z,51.85
2022-10-26T00:26:29.585Z,51.55
2022-10-26T00:27:05.048Z,51.92
2022-10-26T00:27:37.325Z,51.87
2022-10-26T00:28:12.220Z,51.52
2022-10-26T00:28:44.507Z,51.63
2022-10-26T00:29:18.463Z,51.50
2022-10-26T00:29:53.253Z,51.57
2022-10-26T00:30:25.605Z,51.87
2022-10-26T00:31:01.212Z,51.40
2022-10-26T00:31:36.173Z,51.79
2022-10-26T00:32:08.429Z,51.51
2022-10-26T00:33:35.557Z,51.79
2022-10-26T00:34:07.770Z,51.42
2022-10-26T00:34:40.105Z,51.61
2022-10-26T00:35:22.887Z,51.42
2022-10-26T00:35:56.621Z,51.37
2022-10-26T00:36:31.644Z,51.36
2022-10-26T00:37:03.907Z,51.43
2022-10-26T00:37:36.097Z,51.52
2022-10-26T00:38:10.974Z,51.79
2022-10-26T00:38:46.142Z,51.42
2022-10-26T00:39:21.120Z,51.38
2022-10-26T00:39:53.311Z,51.78
2022-10-26T00:40:28.767Z,51.68
2022-10-26T00:41:03.620Z,51.64
2022-10-26T00:41:35.810Z,51.59
2022-10-26T00:42:13.056Z,51.86
2022-10-26T00:42:45.244Z,51.85
2022-10-26T00:43:37.536Z,51.45
2022-10-26T00:44:39.785Z,51.88
2022-10-26T00:45:22.844Z,51.47
2022-10-26T00:45:56.369Z,51.85
2022-10-26T00:46:30.892Z,51.95
2022-10-26T00:47:05.669Z,51.55
2022-10-26T00:47:40.823Z,51.71
2022-10-26T00:48:18.885Z,51.49
2022-10-26T00:48:57.736Z,51.49
2022-10-26T00:49:29.934Z,51.64
2022-10-26T00:50:05.333Z,51.52
2022-10-26T00:50:43.139Z,51.79
2022-10-26T00:51:21.380Z,51.75
2022-10-26T00:51:54.476Z,51.50
2022-10-26T00:52:29.910Z,51.64
2022-10-26T00:53:04.092Z,51.89
2022-10-26T00:53:36.615Z,51.94
2022-10-26T00:54:14.813Z,51.64
2022-10-26T00:54:47.227Z,51.84
2022-10-26T00:55:21.460Z,51.97
2022-10-26T00:55:57.187Z,51.62
2022-10-26T00:56:29.953Z,51.95
2022-10-26T00:57:02.125Z,51.83
2022-10-26T00:57:40.742Z,51.68
2022-10-26T00:58:12.978Z,51.74
2022-10-26T00:58:48.012Z,51.62
2022-10-26T00:59:21.911Z,51.95
2022-10-26T00:59:54.909Z,51.56
2022-10-26T01:00:29.786Z,51.80
2022-10-26T01:01:02.042Z,51.52
2022-10-26T01:01:35.257Z,51.84
2022-10-26T01:02:10.252Z,51.53
2022-10-26T01:02:43.229Z,51.99
2022-10-26T01:03:16.282Z,51.90
2022-10-26T01:03:51.603Z,51.50
2022-10-26T01:04:23.901Z,51.70
2022-10-26T01:04:56.532Z,52.00
2022-10-26T01:05:31.848Z,51.96
2022-10-26T01:06:04.920Z,52.03
2022-10-26T01:06:40.614Z,51.60
2022-10-26T01:07:13.367Z,52.00
2022-10-26T01:07:46.386Z,51.67
2022-10-26T01:08:21.436Z,51.63
2022-10-26T01:08:53.648Z,51.90
2022-10-26T01:09:25.893Z,51.63
2022-10-26T01:10:01.385Z,51.76
2022-10-26T01:10:33.789Z,51.83
2022-10-26T01:11:06.435Z,52.05
2022-10-26T01:11:41.312Z,51.67
2022-10-26T01:12:13.533Z,52.09
2022-10-26T01:12:48.329Z,52.03
2022-10-26T01:13:23.376Z,52.02
2022-10-26T01:13:56.380Z,51.70
2022-10-26T01:14:29.217Z,51.69
2022-10-26T01:15:04.140Z,51.86
2022-10-26T01:15:41.325Z,51.90
2022-10-26T01:16:26.196Z,51.67
2022-10-26T01:17:06.961Z,52.02
2022-10-26T01:17:49.792Z,51.83
2022-10-26T01:18:30.247Z,52.07
2022-10-26T01:19:18.117Z,51.84
2022-10-26T01:20:22.053Z,51.86
2022-10-26T01:22:46.327Z,51.80
2022-10-26T01:23:23.496Z,52.09
2022-10-26T01:24:08.248Z,51.79
2022-10-26T01:25:03.809Z,51.71
2022-10-26T01:25:46.264Z,51.81
2022-10-26T01:26:33.252Z,51.97
2022-10-26T01:27:27.546Z,52.16
2022-10-26T01:28:00.612Z,52.05
2022-10-26T01:28:44.613Z,51.65
2022-10-26T01:29:36.694Z,51.68
2022-10-26T01:30:27.467Z,51.74
2022-10-26T01:31:04.691Z,51.75
2022-10-26T01:31:41.004Z,51.84
2022-10-26T01:32:16.997Z,51.99
2022-10-26T01:33:12.323Z,52.07
2022-10-26T01:33:47.065Z,51.98
2022-10-26T01:34:22.716Z,51.97
2022-10-26T01:35:03.913Z,51.75
2022-10-26T01:35:40.531Z,51.76
2022-10-26T01:36:17.545Z,51.71
2022-10-26T01:36:53.823Z,52.00
2022-10-26T01:37:30.671Z,51.91
2022-10-26T01:38:09.355Z,51.67
2022-10-26T01:38:46.729Z,51.99
2022-10-26T01:39:25.368Z,51.90
2022-10-26T01:40:02.472Z,51.96
2022-10-26T01:40:38.012Z,51.62
2022-10-26T01:41:16.061Z,52.01
2022-10-26T01:41:50.479Z,51.95
2022-10-26T01:42:24.158Z,51.89
2022-10-26T01:43:00.765Z,51.75
2022-10-26T01:43:35.890Z,51.79
2022-10-26T01:44:13.865Z,51.88
2022-10-26T01:44:48.575Z,51.88
2022-10-26T01:45:23.627Z,51.86
2022-10-26T01:45:58.943Z,51.97
2022-10-26T01:46:35.560Z,51.62
2022-10-26T01:47:09.185Z,51.96
2022-10-26T01:47:44.028Z,51.93
2022-10-26T01:48:18.795Z,51.74
2022-10-26T01:48:53.796Z,51.67
2022-10-26T01:49:31.327Z,51.83
2022-10-26T01:50:04.960Z,51.85
2022-10-26T01:50:37.731Z,51.76
2022-10-26T01:51:12.921Z,51.67
2022-10-26T01:51:45.968Z,51.69
2022-10-26T01:52:19.264Z,51.62
2022-10-26T01:52:54.129Z,52.04
2022-10-26T01:53:27.800Z,51.71
2022-10-26T01:53:59.991Z,51.78
2022-10-26T01:54:38.474Z,51.95
2022-10-26T01:55:40.472Z,51.79
2022-10-26T01:56:19.353Z,52.10
2022-10-26T01:56:55.196Z,51.83
2022-10-26T01:57:27.391Z,51.69
2022-10-26T01:58:06.860Z,52.07
2022-10-26T01:58:55.583Z,51.77
2022-10-26T01:59:35.553Z,52.19
2022-10-26T02:00:12.926Z,51.94
2022-10-26T02:00:54.820Z,51.86
2022-10-26T02:01:52.209Z,51.71
2022-10-26T02:02:37.676Z,51.95
2022-10-26T02:03:13.952Z,52.02
2022-10-26T02:03:50.936Z,51.70
2022-10-26T02:04:47.828Z,51.63
2022-10-26T02:05:36.954Z,52.02
2022-10-26T02:06:17.613Z,51.84
2022-10-26T02:06:58.097Z,51.72
2022-10-26T02:07:34.974Z,51.93
2022-10-26T02:08:17.132Z,51.65
2022-10-26T02:09:00.102Z,51.95
2022-10-26T02:09:39.444Z,52.07
2022-10-26T02:10:19.215Z,51.72
2022-10-26T02:11:03.128Z,51.93
2022-10-26T02:11:39.051Z,51.95
2022-10-26T02:12:15.863Z,52.07
2022-10-26T02:12:59.088Z,51.63
2022-10-26T02:13:35.936Z,51.86
2022-10-26T02:14:53.061Z,51.61
2022-10-26T02:15:30.325Z,51.81
2022-10-26T02:16:13.510Z,51.96
2022-10-26T02:16:56.631Z,51.73
2022-10-26T02:17:31.509Z,51.74
2022-10-26T02:18:08.846Z,51.97
2022-10-26T02:18:47.219Z,51.71
2022-10-26T02:19:30.129Z,51.92
2022-10-26T02:20:07.232Z,51.89
2022-10-26T02:20:41.596Z,51.77
2022-10-26T02:21:16.297Z,51.74
2022-10-26T02:22:43.031Z,51.74
2022-10-26T02:23:15.859Z,51.62
2022-10-26T02:23:48.542Z,51.66
2022-10-26T02:24:25.269Z,51.77
2022-10-26T02:25:00.167Z,51.69
2022-10-26T02:25:37.180Z,51.67
2022-10-26T02:26:11.164Z,51.76
2022-10-26T02:26:46.893Z,51.91
2022-10-26T02:27:24.132Z,51.95
2022-10-26T02:28:00.043Z,51.99
2022-10-26T02:28:35.710Z,51.96
2022-10-26T02:29:12.907Z,51.86
2022-10-26T02:29:45.937Z,51.69
2022-10-26T02:30:18.329Z,51.81
2022-10-26T02:30:55.504Z,51.95
2022-10-26T02:31:28.208Z,52.59
2022-10-26T02:32:01.801Z,52.93
2022-10-26T02:32:38.707Z,52.45
2022-10-26T02:33:13.243Z,52.49
2022-10-26T02:34:26.979Z,52.00
2022-10-26T02:35:00.690Z,51.86
2022-10-26T02:35:36.666Z,51.49
2022-10-26T02:36:13.823Z,51.83
2022-10-26T02:36:47.912Z,51.45
2022-10-26T02:37:20.926Z,51.12
2022-10-26T02:37:59.209Z,51.10
2022-10-26T02:38:33.766Z,51.11
2022-10-26T02:39:07.081Z,51.10
2022-10-26T02:39:42.493Z,50.71
2022-10-26T02:40:17.922Z,51.07
2022-10-26T02:40:51.890Z,50.96
2022-10-26T02:41:27.514Z,50.75
2022-10-26T02:42:01.761Z,50.83
2022-10-26T02:42:34.277Z,50.45
2022-10-26T02:43:08.669Z,50.58
2022-10-26T02:43:47.352Z,50.43
2022-10-26T02:44:23.855Z,50.66
2022-10-26T02:44:58.187Z,50.64
2022-10-26T02:45:37.305Z,50.32
2022-10-26T02:46:11.260Z,50.16
2022-10-26T02:46:44.222Z,50.47
2022-10-26T02:47:19.305Z,49.85
2022-10-26T02:47:52.005Z,50.12
2022-10-26T02:48:24.763Z,49.96
2022-10-26T02:48:59.771Z,49.96
2022-10-26T02:49:32.129Z,49.91
2022-10-26T02:50:05.135Z,49.96
2022-10-26T02:50:45.811Z,50.06
2022-10-26T02:51:19.993Z,50.18
2022-10-26T02:51:55.296Z,50.09
2022-10-26T02:52:35.576Z,49.96
2022-10-26T02:53:16.156Z,49.97
2022-10-26T02:53:51.897Z,49.95
2022-10-26T02:54:36.429Z,50.11
2022-10-26T02:55:12.802Z,49.86
2022-10-26T02:55:50.113Z,50.02
2022-10-26T02:56:27.415Z,49.61
2022-10-26T02:57:01.788Z,49.75
2022-10-26T02:57:39.809Z,50.05
2022-10-26T02:58:18.041Z,49.99
2022-10-26T02:58:53.436Z,49.99
2022-10-26T02:59:36.192Z,49.56
2022-10-26T03:00:13.462Z,49.96
2022-10-26T03:00:46.608Z,49.63
2022-10-26T03:01:18.898Z,49.95
2022-10-26T03:01:54.172Z,49.69
2022-10-26T03:02:26.931Z,49.93
2022-10-26T03:02:59.817Z,49.47
2022-10-26T03:03:34.800Z,49.79
2022-10-26T03:04:07.145Z,49.75
2022-10-26T03:04:39.397Z,49.49
2022-10-26T03:05:17.683Z,49.57
2022-10-26T03:05:49.881Z,49.90
2022-10-26T03:06:22.890Z,49.55
2022-10-26T03:06:58.034Z,49.89
2022-10-26T03:07:30.203Z,49.62
2022-10-26T03:08:02.423Z,49.75
2022-10-26T03:08:39.840Z,49.75
2022-10-26T03:09:12.015Z,49.51
2022-10-26T03:09:44.200Z,49.81
2022-10-26T03:10:19.055Z,49.79
2022-10-26T03:10:51.252Z,49.97
2022-10-26T03:11:23.487Z,50.04
2022-10-26T03:11:58.255Z,49.97
2022-10-26T03:12:30.447Z,49.74
2022-10-26T03:13:02.617Z,50.04
2022-10-26T03:13:37.415Z,49.64
2022-10-26T03:14:09.728Z,49.86
2022-10-26T03:14:41.951Z,49.65
2022-10-26T03:15:16.988Z,49.71
2022-10-26T03:15:49.332Z,49.98
2022-10-26T03:16:21.584Z,49.64
2022-10-26T03:16:53.795Z,49.77
2022-10-26T03:17:28.568Z,49.77
2022-10-26T03:18:00.756Z,49.80
2022-10-26T03:18:32.969Z,49.69
2022-10-26T03:19:07.732Z,49.63
2022-10-26T03:19:39.931Z,49.60
2022-10-26T03:20:12.673Z,49.41
2022-10-26T03:20:47.651Z,49.55
2022-10-26T03:21:19.824Z,49.59
2022-10-26T03:21:54.608Z,49.82
2022-10-26T03:22:26.815Z,49.82
2022-10-26T03:22:58.992Z,49.48
2022-10-26T03:23:33.813Z,49.55
2022-10-26T03:24:09.199Z,50.23
2022-10-26T03:24:41.422Z,49.96
2022-10-26T03:25:15.667Z,49.79
2022-10-26T03:25:50.455Z,49.70
2022-10-26T03:26:22.629Z,49.62
2022-10-26T03:26:57.067Z,49.47
2022-10-26T03:27:35.242Z,49.76
2022-10-26T03:28:07.492Z,49.36
2022-10-26T03:28:39.679Z,49.43
2022-10-26T03:29:14.462Z,49.75
2022-10-26T03:29:46.666Z,49.77
2022-10-26T03:30:18.849Z,49.34
2022-10-26T03:30:53.636Z,49.36
2022-10-26T03:31:25.836Z,49.47
2022-10-26T03:31:58.100Z,49.72
2022-10-26T03:32:32.889Z,49.75
2022-10-26T03:33:05.078Z,49.71
2022-10-26T03:34:32.035Z,49.56
2022-10-26T03:35:04.992Z,49.58
2022-10-26T03:35:37.156Z,49.59
2022-10-26T03:36:13.054Z,49.54
2022-10-26T03:36:45.227Z,49.86
2022-10-26T03:37:20.006Z,49.62
2022-10-26T03:37:52.409Z,49.57
2022-10-26T03:38:25.096Z,49.42
2022-10-26T03:38:59.872Z,49.60
2022-10-26T03:39:34.691Z,49.36
2022-10-26T03:40:08.712Z,49.34
2022-10-26T03:40:44.257Z,49.39
2022-10-26T03:41:16.431Z,49.82
2022-10-26T03:41:48.689Z,49.24
2022-10-26T03:42:23.555Z,49.79
2022-10-26T03:42:55.741Z,49.64
2022-10-26T03:43:28.076Z,49.79
2022-10-26T03:44:02.835Z,49.53
2022-10-26T03:44:35.041Z,49.39
2022-10-26T03:45:08.884Z,49.90
2022-10-26T03:45:43.652Z,49.48
2022-10-26T03:46:15.967Z,49.80
2022-10-26T03:46:48.149Z,49.83
2022-10-26T03:47:22.928Z,49.49
2022-10-26T03:47:55.120Z,49.65
2022-10-26T03:48:27.293Z,49.46
2022-10-26T03:49:02.065Z,49.88
2022-10-26T03:49:34.380Z,49.61
2022-10-26T03:50:07.341Z,49.36
2022-10-26T03:50:42.331Z,49.40
2022-10-26T03:51:14.529Z,49.82
2022-10-26T03:51:46.710Z,49.87
2022-10-26T03:52:21.488Z,49.63
2022-10-26T03:52:53.672Z,49.70
2022-10-26T03:53:25.921Z,49.60
2022-10-26T03:54:00.707Z,49.55
2022-10-26T03:54:35.534Z,49.78
2022-10-26T03:55:08.625Z,49.33
2022-10-26T03:55:46.412Z,49.39
2022-10-26T03:56:18.589Z,49.63
2022-10-26T03:56:52.782Z,49.38
2022-10-26T03:57:29.861Z,49.83
2022-10-26T03:58:02.046Z,49.57
2022-10-26T03:58:34.225Z,49.86
2022-10-26T03:59:09.020Z,49.84
2022-10-26T03:59:41.488Z,49.65
2022-10-26T04:00:15.729Z,49.82
2022-10-26T04:00:51.797Z,49.39
2022-10-26T04:01:24.079Z,49.63
2022-10-26T04:01:57.877Z,49.54
2022-10-26T04:02:32.951Z,49.36
2022-10-26T04:03:05.121Z,49.63
2022-10-26T04:03:39.895Z,49.36
2022-10-26T04:04:12.294Z,49.91
2022-10-26T04:04:44.507Z,49.58
2022-10-26T04:05:19.481Z,49.34
2022-10-26T04:05:51.649Z,49.63
2022-10-26T04:06:27.216Z,49.53
2022-10-26T04:07:03.155Z,49.72
2022-10-26T04:07:38.759Z,49.30
2022-10-26T04:08:17.030Z,49.73
2022-10-26T04:08:49.224Z,49.51
2022-10-26T04:09:22.435Z,49.29
2022-10-26T04:10:00.953Z,49.70
2022-10-26T04:10:38.208Z,49.48
2022-10-26T04:11:10.616Z,49.53
2022-10-26T04:11:43.129Z,49.48
2022-10-26T04:12:20.112Z,49.51
2022-10-26T04:12:55.551Z,49.65
2022-10-26T04:13:27.801Z,49.53
2022-10-26T04:14:02.876Z,49.70
2022-10-26T04:14:35.436Z,49.28
2022-10-26T04:15:11.211Z,49.38
2022-10-26T04:15:47.673Z,49.70
2022-10-26T04:16:22.788Z,49.58
2022-10-26T04:16:57.177Z,49.72
2022-10-26T04:17:38.419Z,49.52
2022-10-26T04:18:14.114Z,49.37
2022-10-26T04:18:49.020Z,49.71
2022-10-26T04:19:22.804Z,49.45
2022-10-26T04:19:58.198Z,49.48
2022-10-26T04:20:36.761Z,49.70
2022-10-26T04:21:10.985Z,49.29
2022-10-26T04:21:43.308Z,49.77
2022-10-26T04:22:24.496Z,49.32
2022-10-26T04:23:04.539Z,49.56
2022-10-26T04:23:36.714Z,49.55
2022-10-26T04:24:13.459Z,49.41
2022-10-26T04:24:45.639Z,49.27
2022-10-26T04:25:20.505Z,49.84
2022-10-26T04:25:55.525Z,49.79
2022-10-26T04:26:31.368Z,49.56
2022-10-26T04:27:03.632Z,49.42
2022-10-26T04:27:39.184Z,49.85
2022-10-26T04:28:15.032Z,49.33
2022-10-26T04:28:50.951Z,49.60
2022-10-26T04:29:24.225Z,49.40
2022-10-26T04:29:56.498Z,49.70
2022-10-26T04:30:31.557Z,49.36
2022-10-26T04:31:03.800Z,49.81
2022-10-26T04:31:36.037Z,49.59
2022-10-26T04:32:10.971Z,49.41
2022-10-26T04:32:43.251Z,49.63
2022-10-26T04:33:18.016Z,49.77
2022-10-26T04:33:50.219Z,49.41
2022-10-26T04:34:22.431Z,49.45
2022-10-26T04:34:59.580Z,49.45
2022-10-26T04:35:32.183Z,49.90
2022-10-26T04:36:04.956Z,49.46
2022-10-26T04:36:39.760Z,49.75
2022-10-26T04:37:12.172Z,49.65
2022-10-26T04:37:46.939Z,49.58
2022-10-26T04:38:24.404Z,49.48
2022-10-26T04:38:56.589Z,49.93
2022-10-26T04:39:28.940Z,49.86
2022-10-26T04:40:59.515Z,49.73
2022-10-26T04:41:34.418Z,49.63
2022-10-26T04:42:07.052Z,49.60
2022-10-26T04:42:43.281Z,50.00
2022-10-26T04:44:11.545Z,49.76
2022-10-26T04:44:43.844Z,49.71
2022-10-26T04:45:17.567Z,49.85
2022-10-26T04:45:52.424Z,49.88
2022-10-26T04:46:24.619Z,49.57
2022-10-26T04:46:56.832Z,50.07
2022-10-26T04:47:31.673Z,49.99
2022-10-26T04:48:05.818Z,49.65
2022-10-26T04:48:37.981Z,49.85
2022-10-26T04:49:13.038Z,50.07
2022-10-26T04:49:45.320Z,49.86
2022-10-26T04:50:17.765Z,49.75
2022-10-26T04:50:52.757Z,49.94
2022-10-26T04:51:25.056Z,50.08
2022-10-26T04:51:57.828Z,50.16
2022-10-26T04:52:33.049Z,49.91
2022-10-26T04:53:05.897Z,49.72
2022-10-26T04:53:41.412Z,49.72
2022-10-26T04:54:16.563Z,49.75
2022-10-26T04:54:48.863Z,49.70
2022-10-26T04:55:22.715Z,50.16
2022-10-26T04:56:00.623Z,49.86
2022-10-26T04:56:34.273Z,50.08
2022-10-26T04:57:09.596Z,50.00
2022-10-26T04:57:49.296Z,49.83
2022-10-26T04:58:21.722Z,49.67
2022-10-26T04:58:59.600Z,50.05
2022-10-26T04:59:36.868Z,49.87
2022-10-26T05:00:14.992Z,49.77
2022-10-26T05:00:47.155Z,50.02
2022-10-26T05:01:19.510Z,49.13
2022-10-26T05:01:55.818Z,48.79
2022-10-26T05:02:28.844Z,49.26
2022-10-26T05:03:05.327Z,49.32
2022-10-26T05:03:37.633Z,49.36
2022-10-26T05:04:09.957Z,49.61
2022-10-26T05:04:44.826Z,49.99
2022-10-26T05:05:17.136Z,50.08
2022-10-26T05:05:49.345Z,50.35
2022-10-26T05:06:24.405Z,50.18
2022-10-26T05:06:56.575Z,50.47
2022-10-26T05:07:28.749Z,50.66
2022-10-26T05:08:03.532Z,50.63
2022-10-26T05:08:35.734Z,50.63
2022-10-26T05:09:07.994Z,50.45
2022-10-26T05:09:42.809Z,50.67
2022-10-26T05:10:18.076Z,50.61
2022-10-26T05:10:51.344Z,51.14
2022-10-26T05:11:27.795Z,51.21
2022-10-26T05:12:01.127Z,51.02
2022-10-26T05:12:34.866Z,51.26
2022-10-26T05:13:09.740Z,51.28
2022-10-26T05:13:43.328Z,51.09
2022-10-26T05:14:21.728Z,51.43
2022-10-26T05:14:59.209Z,51.47
2022-10-26T05:15:34.552Z,51.10
2022-10-26T05:16:12.918Z,51.40
2022-10-26T05:16:45.616Z,51.23
2022-10-26T05:17:20.479Z,51.48
2022-10-26T05:17:56.819Z,51.54
2022-10-26T05:18:29.093Z,51.39
2022-10-26T05:19:04.957Z,51.33
2022-10-26T05:19:37.252Z,51.30
2022-10-26T05:20:18.232Z,51.31
2022-10-26T05:20:52.974Z,51.35
2022-10-26T05:21:27.796Z,51.54
2022-10-26T05:22:00.176Z,51.50
2022-10-26T05:22:38.384Z,51.84
2022-10-26T05:23:12.052Z,51.73
2022-10-26T05:23:44.256Z,51.61
2022-10-26T05:24:21.911Z,51.67
2022-10-26T05:24:54.254Z,51.65
2022-10-26T05:25:29.427Z,51.50
2022-10-26T05:26:07.576Z,51.65
2022-10-26T05:26:40.765Z,51.89
2022-10-26T05:27:20.031Z,51.62
2022-10-26T05:27:52.584Z,51.81
2022-10-26T05:28:27.164Z,51.76
2022-10-26T05:29:03.320Z,51.87
2022-10-26T05:29:37.649Z,51.62
2022-10-26T05:30:18.818Z,51.41
2022-10-26T05:30:54.037Z,51.88
2022-10-26T05:31:27.292Z,51.40
2022-10-26T05:32:02.194Z,51.70
2022-10-26T05:32:34.503Z,51.46
2022-10-26T05:33:09.500Z,51.94
2022-10-26T05:33:44.307Z,51.45
2022-10-26T05:34:16.541Z,51.40
2022-10-26T05:34:48.707Z,51.51
2022-10-26T05:35:23.540Z,51.55
2022-10-26T05:35:55.735Z,51.76
2022-10-26T05:36:30.657Z,51.67
2022-10-26T05:37:02.883Z,51.74
2022-10-26T05:37:35.052Z,51.86
2022-10-26T05:38:11.189Z,51.72
2022-10-26T05:38:43.428Z,51.66
2022-10-26T05:39:15.617Z,51.79
2022-10-26T05:39:50.379Z,51.52
2022-10-26T05:40:25.726Z,51.97
2022-10-26T05:40:59.595Z,51.70
2022-10-26T05:41:37.541Z,51.47
2022-10-26T05:42:09.793Z,51.80
2022-10-26T05:42:42.575Z,51.82
2022-10-26T05:43:20.389Z,51.83
2022-10-26T05:43:55.951Z,51.97
2022-10-26T05:44:32.369Z,51.95
2022-10-26T05:45:05.513Z,51.78
2022-10-26T05:45:41.356Z,51.87
2022-10-26T05:46:21.000Z,51.83
2022-10-26T05:46:54.906Z,51.52
2022-10-26T05:47:29.712Z,51.54
2022-10-26T05:48:05.500Z,51.59
2022-10-26T05:48:37.920Z,51.88
2022-10-26T05:49:16.469Z,51.62
2022-10-26T05:49:49.023Z,51.73
2022-10-26T05:50:24.783Z,51.80
2022-10-26T05:51:02.226Z,51.54
2022-10-26T05:51:35.192Z,51.97
2022-10-26T05:52:08.289Z,51.78
2022-10-26T05:52:46.413Z,51.52
2022-10-26T05:53:20.570Z,51.97
2022-10-26T05:53:56.523Z,51.57
2022-10-26T05:54:30.513Z,51.74
2022-10-26T05:56:01.539Z,51.64
2022-10-26T05:56:36.143Z,51.97
2022-10-26T05:57:14.853Z,51.86
2022-10-26T05:57:48.170Z,51.98
2022-10-26T05:58:21.266Z,51.82
2022-10-26T05:58:56.715Z,51.57
2022-10-26T05:59:29.238Z,51.55
2022-10-26T06:00:02.420Z,51.97
2022-10-26T06:00:57.436Z,51.77
2022-10-26T06:01:37.932Z,51.78
2022-10-26T06:02:17.557Z,51.56
2022-10-26T06:03:01.942Z,51.69
2022-10-26T06:03:41.887Z,51.87
2022-10-26T06:04:25.442Z,52.08
2022-10-26T06:05:03.492Z,51.96
2022-10-26T06:05:41.859Z,52.09
2022-10-26T06:06:14.370Z,52.00
2022-10-26T06:06:47.831Z,51.85
2022-10-26T06:07:24.133Z,52.14
2022-10-26T06:07:57.517Z,52.26
2022-10-26T06:08:31.101Z,51.83
2022-10-26T06:09:07.255Z,51.97
2022-10-26T06:09:41.051Z,52.14
2022-10-26T06:10:17.602Z,51.81
2022-10-26T06:10:51.380Z,52.25
2022-10-26T06:11:27.552Z,52.09
2022-10-26T06:12:02.096Z,51.83
2022-10-26T06:12:38.376Z,52.04
2022-10-26T06:13:11.763Z,52.06
2022-10-26T06:13:45.245Z,52.16
2022-10-26T06:14:21.494Z,51.86
2022-10-26T06:14:55.055Z,51.93
2022-10-26T06:15:27.983Z,51.71
2022-10-26T06:16:33.059Z,51.93
2022-10-26T06:17:16.296Z,51.79
2022-10-26T06:18:00.005Z,51.79
2022-10-26T06:18:40.484Z,51.85
2022-10-26T06:19:22.225Z,51.95
2022-10-26T06:21:14.076Z,52.04
2022-10-26T06:22:02.092Z,51.62
2022-10-26T06:22:43.499Z,51.86
2022-10-26T06:23:34.412Z,52.08
2022-10-26T06:24:11.309Z,51.82
2022-10-26T06:24:47.252Z,51.92
2022-10-26T06:25:30.875Z,52.04
2022-10-26T06:26:06.120Z,51.67
2022-10-26T06:26:45.892Z,52.05
2022-10-26T06:27:25.612Z,52.11
2022-10-26T06:28:08.500Z,51.66
2022-10-26T06:28:49.923Z,51.97
2022-10-26T06:29:34.115Z,51.71
2022-10-26T06:30:10.425Z,51.99
2022-10-26T06:30:44.115Z,51.90
2022-10-26T06:31:19.378Z,52.10
2022-10-26T06:31:51.917Z,52.03
2022-10-26T06:32:27.115Z,51.79
2022-10-26T06:33:06.662Z,51.88
2022-10-26T06:33:51.122Z,52.02
2022-10-26T06:34:29.590Z,51.95
2022-10-26T06:35:15.908Z,51.79
2022-10-26T06:35:56.104Z,52.21
2022-10-26T06:36:30.359Z,52.07
2022-10-26T06:37:03.417Z,52.09
2022-10-26T06:37:39.435Z,51.89
2022-10-26T06:38:14.977Z,52.10
2022-10-26T06:38:51.012Z,51.97
2022-10-26T06:39:24.693Z,51.84
2022-10-26T06:39:58.255Z,52.16
2022-10-26T06:40:34.692Z,51.76
2022-10-26T06:41:07.785Z,51.86
2022-10-26T06:41:43.759Z,51.89
2022-10-26T06:42:17.077Z,51.76
2022-10-26T06:42:53.584Z,52.19
2022-10-26T06:43:27.783Z,51.79
2022-10-26T06:44:02.678Z,52.27
2022-10-26T06:44:39.205Z,51.93
2022-10-26T06:46:31.062Z,51.80
2022-10-26T06:47:07.764Z,52.19
2022-10-26T06:47:52.169Z,52.12
2022-10-26T06:48:28.582Z,52.07
2022-10-26T06:49:09.796Z,51.97
2022-10-26T06:49:55.356Z,52.17
2022-10-26T06:50:37.052Z,52.21
2022-10-26T06:51:12.485Z,51.90
2022-10-26T06:51:50.311Z,52.20
2022-10-26T06:52:31.024Z,51.90
2022-10-26T06:53:10.627Z,52.02
2022-10-26T06:53:48.997Z,51.92
2022-10-26T06:54:25.184Z,52.33
2022-10-26T06:54:58.775Z,51.93
2022-10-26T06:55:41.053Z,52.27
2022-10-26T06:56:14.509Z,52.46
2022-10-26T06:56:49.871Z,52.40
2022-10-26T06:57:24.378Z,52.21
2022-10-26T06:57:56.764Z,52.18
2022-10-26T06:58:35.435Z,52.44
2022-10-26T06:59:10.372Z,52.16
2022-10-26T06:59:46.403Z,52.18
2022-10-26T07:00:25.525Z,52.37
2022-10-26T07:00:58.731Z,52.56
2022-10-26T07:01:34.017Z,52.69
2022-10-26T07:02:07.202Z,52.62
2022-10-26T07:02:45.557Z,52.23
2022-10-26T07:03:18.222Z,52.29
2022-10-26T07:03:53.655Z,52.26
2022-10-26T07:04:26.161Z,52.47
2022-10-26T07:05:01.343Z,52.44
2022-10-26T07:05:34.363Z,52.61
2022-10-26T07:06:07.493Z,52.36
2022-10-26T07:06:42.985Z,52.57
2022-10-26T07:07:17.524Z,52.19
2022-10-26T07:07:51.091Z,52.24
2022-10-26T07:08:26.564Z,52.22
2022-10-26T07:08:59.100Z,52.18
2022-10-26T07:09:31.621Z,52.63
2022-10-26T07:10:07.495Z,52.60
2022-10-26T07:10:40.119Z,52.49
2022-10-26T07:11:12.593Z,52.24
2022-10-26T07:11:47.744Z,52.57
2022-10-26T07:12:20.365Z,52.16
2022-10-26T07:12:55.520Z,52.21
2022-10-26T07:13:28.041Z,52.57
2022-10-26T07:14:03.180Z,52.33
2022-10-26T07:14:35.740Z,52.14
2022-10-26T07:15:12.575Z,52.55
2022-10-26T07:15:45.484Z,52.19
2022-10-26T07:16:18.021Z,52.65
2022-10-26T07:16:53.632Z,52.52
2022-10-26T07:17:27.596Z,52.21
2022-10-26T07:18:07.785Z,52.21
2022-10-26T07:18:40.289Z,52.29
2022-10-26T07:19:12.795Z,52.21
2022-10-26T07:19:47.934Z,52.31
2022-10-26T07:20:22.149Z,52.45
2022-10-26T07:20:54.770Z,52.38
2022-10-26T07:21:29.911Z,52.67
2022-10-26T07:22:02.688Z,52.58
2022-10-26T07:22:37.976Z,52.29
2022-10-26T07:23:11.954Z,52.74
2022-10-26T07:23:47.360Z,52.38
2022-10-26T07:24:19.865Z,52.41
2022-10-26T07:24:57.028Z,52.31
2022-10-26T07:25:31.796Z,52.49
2022-10-26T07:26:06.777Z,52.53
2022-10-26T07:26:39.335Z,52.28
2022-10-26T07:27:11.870Z,52.65
2022-10-26T07:27:47.330Z,52.80
2022-10-26T07:28:20.097Z,52.43
2022-10-26T07:28:52.844Z,52.74
2022-10-26T07:29:29.692Z,52.37
2022-10-26T07:30:02.281Z,52.69
2022-10-26T07:30:34.890Z,52.69
2022-10-26T07:31:10.492Z,52.57
2022-10-26T07:31:43.484Z,52.72
2022-10-26T07:32:16.044Z,52.36
2022-10-26T07:32:51.498Z,52.55
2022-10-26T07:33:26.860Z,52.74
2022-10-26T07:33:59.452Z,52.79
2022-10-26T07:34:34.610Z,52.72
2022-10-26T07:35:07.984Z,52.43
2022-10-26T07:35:41.143Z,52.46
2022-10-26T07:36:16.075Z,52.86
2022-10-26T07:36:48.849Z,52.74
2022-10-26T07:37:21.344Z,52.50
2022-10-26T07:37:59.979Z,52.69
2022-10-26T07:38:33.000Z,52.43
2022-10-26T07:39:08.523Z,52.41
2022-10-26T07:39:41.089Z,52.69
2022-10-26T07:40:16.338Z,52.47
2022-10-26T07:40:50.780Z,52.45
2022-10-26T07:41:23.286Z,52.52
2022-10-26T07:41:58.441Z,52.55
2022-10-26T07:42:30.961Z,52.78
2022-10-26T07:43:03.495Z,52.40
2022-10-26T07:43:38.720Z,52.48
2022-10-26T07:44:11.182Z,52.69
2022-10-26T07:44:43.680Z,52.47
2022-10-26T07:45:19.061Z,52.49
2022-10-26T07:45:51.945Z,52.69
2022-10-26T07:46:27.200Z,52.83
2022-10-26T07:47:00.252Z,52.77
2022-10-26T07:47:32.830Z,52.52
2022-10-26T07:48:08.394Z,52.86